• Join FlightAware (Why Join?)
  • Login
  • US Flag 
08:44AM EDT


 

Airport Tracker/Info


-or-


 

Live Flight TrackerFlight Track Log ✈ N12502 ✈ 29-Sep-2013 ✈ 2K0 - KGBG

Flight Track Log - Related Links

Times and Time Zones

All times are in EDT time to prevent confusion due to time zone crossing. See the N12502 flight status page for this flight to view local times or setup timezone preferences in your user account.

Time Position Orientation Groundspeed Altitude Reporting Facility
EDT Latitude Longitude Course Direction KTS MPH feet Rate Location/Type
11:55AM 40.1939 -88.6317 304° West 94 108 4,500  Level Chicago Center
11:56AM 40.2089 -88.6614 303° West 96 110 4,500  Level Chicago Center
11:57AM 40.2261 -88.6958 303° West 95 109 4,500  Level Chicago Center
11:58AM 40.2419 -88.7222 308° West 94 108 4,500 -60 Level Chicago Center
11:59AM 40.1175 -88.7781 303° West  Level Estimated
11:59AM 40.2558 -88.7528 301° West 95 109 4,400  Level Chicago Center
12:00PM 40.1362 -88.8147 304° West  Level FlightAware Approximate
12:00PM 40.2722 -88.7808 307° West 96 110 4,400  Level Chicago Center
12:01PM 40.2850 -88.8097 300° West 95 109 4,400  Level Chicago Center
12:02PM 40.2947 -88.8428 291° West 96 110 4,400  Level Chicago Center
12:03PM 40.3075 -88.8806 294° West 95 109 4,500  Climbing Chicago Center
12:04PM 40.3208 -88.9103 300° West 94 108 4,500  Level Chicago Center
12:05PM 40.3269 -88.9439 283° West 95 109 4,500  Level Chicago Center
12:06PM 40.3344 -88.9783 286° West 97 112 4,500  Level Chicago Center
12:07PM 40.3444 -89.0117 291° West 97 112 4,500 -60 Level Chicago Center
12:08PM 40.3528 -89.0467 287° West 99 114 4,400 -60 Descending Chicago Center
12:09PM 40.3631 -89.0858 289° West 96 110 4,400  Level Chicago Center
12:10PM 40.3697 -89.1186 285° West 94 108 4,400  Level Chicago Center
12:11PM 40.3792 -89.1494 292° West 92 106 4,400  Level Chicago Center
12:12PM 40.3883 -89.1819 290° West 94 108 4,400  Level Chicago Center
12:13PM 40.3992 -89.2122 295° West 93 107 4,400 -60 Level Chicago Center
12:15PM 40.4125 -89.2411 301° West 92 106 4,300 -60 Descending Chicago Center
12:16PM 40.4281 -89.2744 302° West 91 105 4,300  Level Chicago Center
12:17PM 40.4433 -89.3008 307° West 90 104 4,400 60 Climbing Chicago Center
12:18PM 40.4572 -89.3278 304° West 89 102 4,500 60 Climbing Chicago Center
12:19PM 40.4722 -89.3544 306° West 90 104 4,600  Climbing Chicago Center
12:20PM 40.4861 -89.3817 304° West 90 104 4,600  Level Chicago Center
12:21PM 40.4992 -89.4119 300° West 93 107 4,600  Level Chicago Center
12:22PM 40.5158 -89.4503 300° West 99 114 4,600  Level Chicago Center
12:23PM 40.5314 -89.4792 305° West 98 113 4,600  Level Chicago Center
12:24PM 40.5478 -89.5075 307° West 97 112 4,600 -60 Level Chicago Center
12:25PM 40.5633 -89.5367 305° West 97 112 4,500 -60 Descending Chicago Center
12:26PM 40.5775 -89.5669 302° West 98 113 4,500  Level Chicago Center
12:27PM 40.5928 -89.5961 305° West 96 110 4,500  Level Chicago Center
12:28PM 40.6094 -89.6228 309° West 96 110 4,500  Level Chicago Center
12:29PM 40.6283 -89.6561 307° West 95 109 4,500  Level Chicago Center
12:30PM 40.6417 -89.6856 301° West 93 107 4,500  Level Chicago Center
12:31PM 40.6539 -89.7167 297° West 94 108 4,500  Level Chicago Center
12:32PM 40.6617 -89.7533 286° West 99 114 4,500  Level Chicago Center
12:33PM 40.6708 -89.7869 290° West 100 115 4,600  Climbing Chicago Center
12:34PM 40.6844 -89.8167 301° West 97 112 4,600  Level Chicago Center
12:35PM 40.6986 -89.8489 300° West 96 110 4,600  Level Chicago Center
12:36PM 40.7122 -89.8783 301° West 95 109 4,600  Level Chicago Center
12:37PM 40.7242 -89.9078 298° West 93 107 4,600  Level Chicago Center
12:38PM 40.7394 -89.9447 299° West 94 108 4,600  Level Chicago Center
12:39PM 40.7517 -89.9747 298° West 94 108 4,600 -120 Level Chicago Center
12:40PM 40.7656 -90.0025 303° West 93 107 4,400 -300 Descending Chicago Center
12:41PM 40.7811 -90.0319 305° West 94 108 4,100 -300 Descending Chicago Center
12:42PM 40.7964 -90.0611 305° West 96 110 3,800 -180 Descending Chicago Center
12:43PM 40.8158 -90.0942 308° West 97 112 3,800  Level Chicago Center
12:45PM 40.8239 -90.1308 286° West  Level FlightAware Approximate
12:52PM 40.9013 -90.3686 311° West  Level FlightAware Approximate
12:53PM 40.9198 -90.3963 311° West  Level FlightAware Approximate
12:54PM 40.9333 -90.4167 311° West  Level FlightAware Approximate